createdAt,value
2023-04-29T00:01:05.082Z,15.60
2023-04-29T00:03:33.389Z,14.63
2023-04-29T00:06:02.624Z,17.07
2023-04-29T00:08:32.116Z,19.90
2023-04-29T00:10:59.909Z,16.77
2023-04-29T00:13:27.851Z,19.83
2023-04-29T00:15:55.628Z,21.10
2023-04-29T00:18:23.616Z,23.60
2023-04-29T00:20:51.426Z,22.73
2023-04-29T00:23:19.293Z,21.63
2023-04-29T00:25:48.413Z,20.97
2023-04-29T00:28:16.266Z,18.73
2023-04-29T00:30:44.345Z,23.10
2023-04-29T00:33:12.602Z,21.33
2023-04-29T00:35:40.643Z,24.57
2023-04-29T00:38:08.564Z,19.93
2023-04-29T00:40:37.189Z,21.53
2023-04-29T00:43:06.403Z,21.63
2023-04-29T00:45:34.289Z,21.97
2023-04-29T00:48:02.320Z,25.93
2023-04-29T00:50:30.770Z,22.73
2023-04-29T00:52:58.840Z,25.30
2023-04-29T00:55:27.363Z,23.10
2023-04-29T00:57:55.327Z,25.80
2023-04-29T01:00:26.176Z,22.70
2023-04-29T01:02:56.848Z,24.10
2023-04-29T01:05:25.195Z,24.90
2023-04-29T01:08:05.368Z,25.77
2023-04-29T01:10:40.436Z,23.40
2023-04-29T01:13:10.922Z,25.83
2023-04-29T01:15:54.388Z,26.80
2023-04-29T01:18:27.108Z,31.10
2023-04-29T01:20:56.006Z,27.60
2023-04-29T01:23:28.233Z,27.23
2023-04-29T01:25:57.928Z,28.93
2023-04-29T01:28:49.176Z,26.13
2023-04-29T01:31:21.023Z,24.40
2023-04-29T01:33:58.139Z,26.90
2023-04-29T01:36:35.416Z,26.10
2023-04-29T01:39:15.420Z,24.13
2023-04-29T01:41:52.020Z,20.33
2023-04-29T01:44:28.231Z,24.50
2023-04-29T01:46:56.954Z,24.07
2023-04-29T01:49:31.908Z,23.17
2023-04-29T01:51:59.876Z,24.10
2023-04-29T01:54:29.103Z,21.77
2023-04-29T01:56:58.620Z,25.47
2023-04-29T01:59:37.223Z,24.30
2023-04-29T02:02:21.235Z,24.97
2023-04-29T02:04:57.709Z,23.87
2023-04-29T02:07:27.092Z,25.57
2023-04-29T02:09:57.453Z,24.60
2023-04-29T02:12:25.757Z,23.07
2023-04-29T02:14:54.222Z,26.00
2023-04-29T02:17:22.180Z,23.57
2023-04-29T02:19:50.335Z,22.43
2023-04-29T02:22:18.495Z,24.30
2023-04-29T02:24:46.473Z,24.97
2023-04-29T02:27:15.636Z,25.83
2023-04-29T02:29:43.602Z,23.50
2023-04-29T02:32:11.567Z,23.60
2023-04-29T02:34:39.836Z,26.93
2023-04-29T02:37:07.730Z,28.43
2023-04-29T02:39:35.570Z,25.73
2023-04-29T02:42:03.981Z,26.70
2023-04-29T02:44:33.147Z,31.07
2023-04-29T02:47:02.571Z,30.13
2023-04-29T02:49:31.244Z,27.53
2023-04-29T02:51:59.435Z,31.50
2023-04-29T02:54:27.268Z,33.30
2023-04-29T02:56:55.090Z,35.13
2023-04-29T02:59:22.961Z,35.73
2023-04-29T03:01:54.545Z,30.60
2023-04-29T03:04:22.981Z,38.53
2023-04-29T03:06:51.084Z,30.70
2023-04-29T03:09:18.937Z,30.90
2023-04-29T03:11:47.694Z,32.03
2023-04-29T03:14:15.688Z,29.63
2023-04-29T03:16:44.244Z,29.87
2023-04-29T03:19:14.128Z,32.43
2023-04-29T03:21:42.192Z,37.37
2023-04-29T03:24:10.118Z,32.10
2023-04-29T03:26:38.183Z,32.60
2023-04-29T03:29:06.235Z,34.63
2023-04-29T03:31:35.237Z,34.83
2023-04-29T03:34:03.275Z,31.10
2023-04-29T03:36:35.577Z,33.77
2023-04-29T03:39:07.840Z,36.90
2023-04-29T03:41:35.822Z,34.10
2023-04-29T03:44:03.684Z,34.70
2023-04-29T03:46:31.897Z,35.47
2023-04-29T03:48:59.838Z,42.73
2023-04-29T03:51:28.180Z,33.07
2023-04-29T03:54:06.811Z,31.90
2023-04-29T03:56:34.735Z,31.03
2023-04-29T03:59:02.562Z,28.67
2023-04-29T04:01:31.636Z,29.67
2023-04-29T04:03:59.650Z,28.17
2023-04-29T04:06:27.819Z,29.53
2023-04-29T04:08:55.652Z,29.50
2023-04-29T04:11:29.817Z,27.83
2023-04-29T04:14:00.731Z,28.77
2023-04-29T04:16:29.006Z,29.57
2023-04-29T04:18:56.913Z,26.83
2023-04-29T04:21:25.269Z,30.27
2023-04-29T04:24:00.350Z,30.47
2023-04-29T04:26:31.322Z,29.30
2023-04-29T04:29:04.917Z,28.57
2023-04-29T04:31:56.734Z,29.13
2023-04-29T04:34:26.218Z,27.87
2023-04-29T04:36:56.126Z,28.27
2023-04-29T04:39:24.446Z,29.37
2023-04-29T04:41:55.238Z,31.07
2023-04-29T04:44:23.339Z,30.83
2023-04-29T04:47:06.659Z,27.60
2023-04-29T04:49:56.800Z,26.67
2023-04-29T04:52:24.962Z,29.17
2023-04-29T04:55:15.584Z,27.53
2023-04-29T04:57:48.354Z,24.70
2023-04-29T05:00:16.874Z,26.93
2023-04-29T05:02:44.934Z,27.07
2023-04-29T05:05:13.039Z,26.37
2023-04-29T05:07:42.758Z,24.87
2023-04-29T05:10:11.581Z,25.77
2023-04-29T05:12:51.578Z,27.97
2023-04-29T05:15:20.695Z,28.17
2023-04-29T05:17:51.507Z,24.93
2023-04-29T05:20:20.350Z,23.97
2023-04-29T05:22:48.193Z,24.83
2023-04-29T05:25:16.611Z,27.80
2023-04-29T05:27:44.630Z,23.80
2023-04-29T05:30:18.972Z,25.87
2023-04-29T05:32:48.597Z,23.47
2023-04-29T05:35:18.436Z,24.30
2023-04-29T05:37:46.582Z,22.93
2023-04-29T05:40:40.891Z,21.70
2023-04-29T05:43:35.563Z,21.40
2023-04-29T05:46:07.391Z,25.27
2023-04-29T05:48:35.512Z,21.57
2023-04-29T05:51:03.510Z,19.10
2023-04-29T05:53:33.181Z,18.93
2023-04-29T05:56:04.722Z,21.77
2023-04-29T05:58:32.772Z,16.63
2023-04-29T06:01:00.591Z,16.70
2023-04-29T06:03:31.235Z,19.67
2023-04-29T06:06:18.394Z,20.17
2023-04-29T06:09:28.032Z,18.77
2023-04-29T06:11:58.902Z,17.57
2023-04-29T06:14:26.899Z,18.20
2023-04-29T06:16:55.094Z,19.70
2023-04-29T06:19:26.731Z,16.80
2023-04-29T06:21:54.612Z,15.63
2023-04-29T06:24:22.851Z,16.07
2023-04-29T06:26:50.852Z,15.17
2023-04-29T06:29:18.786Z,17.13
2023-04-29T06:31:46.755Z,19.20
2023-04-29T06:34:14.701Z,15.37
2023-04-29T06:37:02.887Z,15.40
2023-04-29T06:39:51.941Z,15.47
2023-04-29T06:42:38.083Z,14.03
2023-04-29T06:45:26.405Z,12.70
2023-04-29T06:48:03.549Z,15.10
2023-04-29T06:50:53.973Z,12.13
2023-04-29T06:53:23.507Z,11.87
2023-04-29T06:55:51.977Z,12.10
2023-04-29T06:58:21.384Z,15.20
2023-04-29T07:00:50.542Z,12.90
2023-04-29T07:03:19.778Z,13.90
2023-04-29T07:05:47.783Z,15.17
2023-04-29T07:08:16.143Z,13.93
2023-04-29T07:10:45.361Z,11.97
2023-04-29T07:13:13.243Z,12.13
2023-04-29T07:15:41.131Z,14.57
2023-04-29T07:18:09.033Z,14.17
2023-04-29T07:20:37.845Z,12.30
2023-04-29T07:23:06.061Z,13.07
2023-04-29T07:25:34.096Z,11.17
2023-04-29T07:28:04.076Z,11.07
2023-04-29T07:30:32.101Z,10.43
2023-04-29T07:33:00.314Z,12.20
2023-04-29T07:35:28.530Z,9.67
2023-04-29T07:37:57.026Z,9.73
2023-04-29T07:40:26.443Z,10.13
2023-04-29T07:42:58.661Z,8.83
2023-04-29T07:45:27.893Z,10.90
2023-04-29T07:47:56.674Z,12.20
2023-04-29T07:50:24.576Z,11.80
2023-04-29T07:52:52.486Z,9.93
2023-04-29T07:55:20.920Z,12.00
2023-04-29T07:57:49.016Z,9.63
2023-04-29T08:00:17.159Z,13.00
2023-04-29T08:02:52.173Z,15.47
2023-04-29T08:05:21.868Z,11.30
2023-04-29T08:07:50.418Z,10.23
2023-04-29T08:10:19.898Z,10.63
2023-04-29T08:12:48.273Z,9.70
2023-04-29T08:15:16.634Z,10.20
2023-04-29T08:17:44.476Z,8.40
2023-04-29T08:20:15.092Z,10.73
2023-04-29T08:22:43.510Z,9.53
2023-04-29T08:25:12.000Z,7.77
2023-04-29T08:27:39.905Z,8.13
2023-04-29T08:30:09.000Z,8.70
2023-04-29T08:32:36.890Z,10.33
2023-04-29T08:35:05.042Z,7.63
2023-04-29T08:37:34.282Z,10.50
2023-04-29T08:40:02.145Z,12.97
2023-04-29T08:42:36.233Z,11.23
2023-04-29T08:45:05.530Z,10.30
2023-04-29T08:47:34.502Z,11.70
2023-04-29T08:50:04.534Z,10.00
2023-04-29T08:52:34.039Z,9.50
2023-04-29T08:55:02.767Z,10.23
2023-04-29T08:57:32.215Z,9.87
2023-04-29T09:00:02.011Z,8.70
2023-04-29T09:02:30.830Z,9.70
2023-04-29T09:05:05.942Z,11.07
2023-04-29T09:07:36.504Z,11.00
2023-04-29T09:10:06.654Z,10.13
2023-04-29T09:12:35.994Z,11.00
2023-04-29T09:15:04.260Z,9.90
2023-04-29T09:17:46.317Z,9.47
2023-04-29T09:20:28.796Z,8.07
2023-04-29T09:23:00.058Z,9.13
2023-04-29T09:25:28.260Z,11.20
2023-04-29T09:27:56.810Z,10.27
2023-04-29T09:30:26.707Z,10.50
2023-04-29T09:33:08.660Z,9.00
2023-04-29T09:35:37.168Z,7.93
2023-04-29T09:38:13.080Z,9.83
2023-04-29T09:40:57.460Z,10.07
2023-04-29T09:43:26.719Z,10.07
2023-04-29T09:45:54.879Z,7.63
2023-04-29T09:48:22.968Z,8.63
2023-04-29T09:51:02.485Z,8.00
2023-04-29T09:53:32.494Z,7.73
2023-04-29T09:56:02.470Z,8.87
2023-04-29T09:58:33.985Z,8.60
2023-04-29T10:01:03.300Z,12.03
2023-04-29T10:03:34.339Z,7.37
2023-04-29T10:06:04.203Z,10.30
2023-04-29T10:08:34.549Z,10.77
2023-04-29T10:11:04.209Z,7.27
2023-04-29T10:13:32.582Z,7.90
2023-04-29T10:16:09.206Z,8.10
2023-04-29T10:18:38.531Z,9.03
2023-04-29T10:21:08.886Z,9.40
2023-04-29T10:23:38.638Z,11.80
2023-04-29T10:26:08.147Z,8.47
2023-04-29T10:28:37.846Z,11.27
2023-04-29T10:31:08.101Z,9.17
2023-04-29T10:33:37.438Z,8.37
2023-04-29T10:36:05.998Z,10.60
2023-04-29T10:38:41.571Z,9.00
2023-04-29T10:41:24.586Z,11.43
2023-04-29T10:43:52.973Z,7.77
2023-04-29T10:46:22.781Z,11.47
2023-04-29T10:48:55.433Z,8.10
2023-04-29T10:51:32.611Z,11.47
2023-04-29T10:54:08.422Z,6.53
2023-04-29T10:56:41.508Z,6.83
2023-04-29T10:59:12.749Z,7.40
2023-04-29T11:01:48.438Z,6.63
2023-04-29T11:04:17.225Z,7.20
2023-04-29T11:06:52.898Z,13.57
2023-04-29T11:09:25.823Z,8.03
2023-04-29T11:12:03.159Z,8.00
2023-04-29T11:14:33.915Z,9.30
2023-04-29T11:17:04.734Z,9.17
2023-04-29T11:19:34.324Z,8.43
2023-04-29T11:22:09.966Z,8.10
2023-04-29T11:24:50.767Z,11.10
2023-04-29T11:27:19.301Z,7.03
2023-04-29T11:29:48.225Z,10.27
2023-04-29T11:32:16.239Z,8.80
2023-04-29T11:34:44.060Z,10.30
2023-04-29T11:37:12.073Z,11.87
2023-04-29T11:39:41.310Z,13.10
2023-04-29T11:42:09.851Z,10.30
2023-04-29T11:44:38.512Z,10.03
2023-04-29T11:47:07.908Z,10.57
2023-04-29T11:49:37.651Z,10.80
2023-04-29T11:52:05.840Z,10.87
2023-04-29T11:54:33.713Z,9.70
2023-04-29T11:57:04.732Z,9.67
2023-04-29T11:59:33.620Z,10.57
2023-04-29T12:02:01.538Z,9.83
2023-04-29T12:04:29.605Z,9.77
2023-04-29T12:06:58.554Z,9.67
2023-04-29T12:09:26.575Z,9.70
2023-04-29T12:11:54.630Z,10.77
2023-04-29T12:14:24.055Z,10.37
2023-04-29T12:16:54.169Z,9.60
2023-04-29T12:19:22.150Z,10.70
2023-04-29T12:21:52.226Z,9.00
2023-04-29T12:24:22.112Z,9.33
2023-04-29T12:26:50.702Z,10.40
2023-04-29T12:29:24.017Z,8.60
2023-04-29T12:31:52.874Z,9.10
2023-04-29T12:34:26.850Z,8.83
2023-04-29T12:36:57.639Z,8.83
2023-04-29T12:39:26.699Z,8.60
2023-04-29T12:41:57.782Z,8.63
2023-04-29T12:44:28.133Z,6.73
2023-04-29T12:46:58.398Z,5.53
2023-04-29T12:49:26.518Z,6.93
2023-04-29T12:51:54.590Z,6.77
2023-04-29T12:54:22.548Z,7.60
2023-04-29T12:56:50.486Z,8.03
2023-04-29T12:59:18.350Z,8.40
2023-04-29T13:01:47.612Z,6.67
2023-04-29T13:04:15.685Z,8.50
2023-04-29T13:06:43.638Z,6.87
2023-04-29T13:09:17.870Z,6.60
2023-04-29T13:11:47.008Z,8.67
2023-04-29T13:14:15.623Z,7.00
2023-04-29T13:16:43.723Z,6.03
2023-04-29T13:19:25.655Z,6.43
2023-04-29T13:22:01.522Z,6.57
2023-04-29T13:24:29.390Z,5.73
2023-04-29T13:26:58.115Z,7.97
2023-04-29T13:29:25.935Z,5.60
2023-04-29T13:31:53.825Z,4.60
2023-04-29T13:34:23.057Z,4.80
2023-04-29T13:36:51.104Z,6.27
2023-04-29T13:39:20.313Z,5.83
2023-04-29T13:41:48.500Z,5.27
2023-04-29T13:44:24.918Z,6.57
2023-04-29T13:46:58.956Z,8.70
2023-04-29T13:50:05.214Z,6.67
2023-04-29T13:55:13.681Z,6.47
2023-04-29T13:58:11.597Z,7.43
2023-04-29T14:05:26.152Z,5.13
2023-04-29T14:07:54.343Z,3.67
2023-04-29T14:10:22.384Z,3.83
2023-04-29T14:12:50.248Z,3.20
2023-04-29T14:15:18.163Z,3.23
2023-04-29T14:17:46.249Z,3.07
2023-04-29T14:20:14.817Z,3.20
2023-04-29T14:22:44.159Z,6.17
2023-04-29T14:25:12.470Z,4.73
2023-04-29T14:27:40.309Z,5.83
2023-04-29T14:30:09.654Z,3.87
2023-04-29T14:32:37.520Z,7.83
2023-04-29T14:35:06.250Z,3.10
2023-04-29T14:37:34.053Z,2.70
2023-04-29T14:40:04.379Z,2.97
2023-04-29T14:42:32.756Z,3.27
2023-04-29T14:45:00.617Z,3.23
2023-04-29T14:47:28.904Z,2.73
2023-04-29T14:49:56.722Z,3.13
2023-04-29T14:52:24.608Z,6.03
2023-04-29T14:54:52.451Z,2.93
2023-04-29T14:57:21.749Z,2.77
2023-04-29T14:59:50.094Z,3.70
2023-04-29T15:02:18.026Z,3.53
2023-04-29T15:04:46.137Z,3.80
2023-04-29T15:07:14.497Z,1.90
2023-04-29T15:09:42.411Z,3.50
2023-04-29T15:12:10.533Z,2.43
2023-04-29T15:14:39.678Z,1.97
2023-04-29T15:17:07.927Z,1.50
2023-04-29T15:19:35.712Z,2.23
2023-04-29T15:22:03.942Z,1.70
2023-04-29T15:24:31.766Z,1.70
2023-04-29T15:26:59.608Z,2.23
2023-04-29T15:29:27.566Z,2.90
2023-04-29T15:31:56.889Z,2.53
2023-04-29T15:34:24.776Z,3.07
2023-04-29T15:36:52.704Z,2.23
2023-04-29T15:39:20.476Z,2.23
2023-04-29T15:41:48.650Z,2.40
2023-04-29T15:44:16.594Z,3.10
2023-04-29T15:46:44.552Z,3.73
2023-04-29T15:49:13.777Z,3.07
2023-04-29T15:51:41.659Z,3.90
2023-04-29T15:54:10.054Z,2.40
2023-04-29T15:56:38.076Z,3.17
2023-04-29T15:59:06.412Z,3.90
2023-04-29T16:01:36.209Z,4.07
2023-04-29T16:04:04.672Z,3.27
2023-04-29T16:06:34.177Z,3.23
2023-04-29T16:09:02.980Z,5.03
2023-04-29T16:11:30.790Z,3.58
2023-04-29T16:13:58.670Z,3.70
2023-04-29T16:16:26.530Z,2.50
2023-04-29T16:18:54.542Z,2.13
2023-04-29T16:21:22.421Z,2.27
2023-04-29T16:23:52.111Z,4.77
2023-04-29T16:26:20.207Z,3.00
2023-04-29T16:28:48.138Z,3.60
2023-04-29T16:31:15.972Z,3.83
2023-04-29T16:33:44.247Z,4.73
2023-04-29T16:36:12.275Z,4.93
2023-04-29T16:38:40.290Z,2.83
2023-04-29T16:41:09.533Z,2.93
2023-04-29T16:43:37.375Z,3.83
2023-04-29T16:46:05.456Z,4.03
2023-04-29T16:48:33.496Z,4.33
2023-04-29T16:51:01.315Z,4.23
2023-04-29T16:53:29.269Z,3.47
2023-04-29T16:55:57.394Z,4.20
2023-04-29T16:58:26.738Z,6.90
2023-04-29T17:00:55.180Z,5.73
2023-04-29T17:03:23.242Z,4.03
2023-04-29T17:05:51.206Z,5.30
2023-04-29T17:08:19.075Z,6.10
2023-04-29T17:10:46.928Z,7.10
2023-04-29T17:13:14.786Z,5.30
2023-04-29T17:15:43.933Z,5.43
2023-04-29T17:18:11.935Z,5.67
2023-04-29T17:20:40.424Z,4.27
2023-04-29T17:23:08.375Z,7.13
2023-04-29T17:25:37.831Z,4.07
2023-04-29T17:28:06.159Z,3.33
2023-04-29T17:30:34.446Z,6.83
2023-04-29T17:33:05.671Z,5.70
2023-04-29T17:35:34.949Z,4.30
2023-04-29T17:38:02.738Z,3.47
2023-04-29T17:40:31.933Z,7.73
2023-04-29T17:42:59.923Z,4.23
2023-04-29T17:45:27.777Z,3.50
2023-04-29T17:47:55.776Z,6.20
2023-04-29T17:50:24.918Z,2.80
2023-04-29T17:52:52.776Z,4.10
2023-04-29T17:55:20.990Z,4.23
2023-04-29T17:57:48.920Z,5.07
2023-04-29T18:00:16.773Z,4.17
2023-04-29T18:02:45.151Z,4.47
2023-04-29T18:05:13.018Z,3.73
2023-04-29T18:07:42.325Z,4.30
2023-04-29T18:10:10.518Z,4.43
2023-04-29T18:12:38.294Z,6.67
2023-04-29T18:15:08.940Z,5.50
2023-04-29T18:17:36.990Z,5.20
2023-04-29T18:20:06.142Z,6.30
2023-04-29T18:22:34.141Z,5.27
2023-04-29T18:25:03.337Z,5.27
2023-04-29T18:27:31.214Z,6.93
2023-04-29T18:29:59.045Z,6.10
2023-04-29T18:32:26.972Z,4.67
2023-04-29T18:34:54.843Z,4.43
2023-04-29T18:37:23.147Z,8.03
2023-04-29T18:39:50.956Z,4.43
2023-04-29T18:42:20.489Z,3.97
2023-04-29T18:44:49.309Z,6.83
2023-04-29T18:47:17.354Z,4.13
2023-04-29T18:49:45.590Z,4.97
2023-04-29T18:52:13.425Z,4.77
2023-04-29T18:54:41.308Z,2.93
2023-04-29T18:57:09.117Z,7.80
2023-04-29T18:59:38.341Z,4.53
2023-04-29T19:02:06.554Z,6.73
2023-04-29T19:04:35.194Z,8.07
2023-04-29T19:07:05.889Z,8.93
2023-04-29T19:09:33.911Z,4.63
2023-04-29T19:12:03.287Z,5.77
2023-04-29T19:14:32.960Z,4.93
2023-04-29T19:17:02.282Z,6.33
2023-04-29T19:19:30.778Z,6.97
2023-04-29T19:21:58.910Z,6.60
2023-04-29T19:24:26.800Z,5.33
2023-04-29T19:26:54.642Z,4.13
2023-04-29T19:29:22.516Z,5.67
2023-04-29T19:31:50.958Z,4.93
2023-04-29T19:34:20.572Z,3.77
2023-04-29T19:36:48.480Z,5.77
2023-04-29T19:39:16.820Z,7.97
2023-04-29T19:41:45.136Z,5.10
2023-04-29T19:44:13.090Z,5.80
2023-04-29T19:46:41.476Z,4.57
2023-04-29T19:49:09.338Z,6.37
2023-04-29T19:51:38.672Z,7.57
2023-04-29T19:54:06.476Z,7.57
2023-04-29T19:56:34.344Z,6.03
2023-04-29T19:59:02.332Z,4.40
2023-04-29T20:01:30.765Z,4.00
2023-04-29T20:03:58.712Z,4.63
2023-04-29T20:06:27.190Z,3.53
2023-04-29T20:08:56.487Z,6.00
2023-04-29T20:11:24.712Z,4.30
2023-04-29T20:13:53.131Z,5.63
2023-04-29T20:16:21.125Z,4.80
2023-04-29T20:18:48.937Z,7.63
2023-04-29T20:21:16.806Z,9.60
2023-04-29T20:23:44.684Z,5.23
2023-04-29T20:26:14.117Z,7.73
2023-04-29T20:28:41.981Z,5.23
2023-04-29T20:31:09.853Z,6.43
2023-04-29T20:33:37.649Z,7.23
2023-04-29T20:36:06.762Z,6.63
2023-04-29T20:38:35.261Z,6.37
2023-04-29T20:41:03.436Z,5.43
2023-04-29T20:43:32.659Z,9.93
2023-04-29T20:46:00.796Z,3.70
2023-04-29T20:48:28.701Z,9.00
2023-04-29T20:50:56.572Z,6.97
2023-04-29T20:53:24.421Z,7.73
2023-04-29T20:55:52.281Z,9.27
2023-04-29T20:58:20.109Z,7.40
2023-04-29T21:00:49.329Z,12.80
2023-04-29T21:03:17.202Z,9.50
2023-04-29T21:05:45.150Z,11.00
2023-04-29T21:08:13.035Z,7.03
2023-04-29T21:10:40.858Z,7.03
2023-04-29T21:13:08.727Z,9.43
2023-04-29T21:15:36.576Z,6.10
2023-04-29T21:18:07.169Z,7.20
2023-04-29T21:20:35.894Z,9.83
2023-04-29T21:23:03.706Z,5.20
2023-04-29T21:25:31.722Z,7.20
2023-04-29T21:27:59.582Z,10.17
2023-04-29T21:30:27.510Z,7.60
2023-04-29T21:32:55.459Z,8.57
2023-04-29T21:35:24.847Z,8.67
2023-04-29T21:37:52.626Z,10.50
2023-04-29T21:40:20.887Z,7.77
2023-04-29T21:42:49.034Z,6.20
2023-04-29T21:45:17.234Z,6.67
2023-04-29T21:47:45.457Z,9.00
2023-04-29T21:50:13.511Z,11.73
2023-04-29T21:52:42.967Z,9.40
2023-04-29T21:55:11.208Z,7.40
2023-04-29T22:00:20.703Z,7.23
2023-04-29T22:02:48.588Z,9.40
2023-04-29T22:05:16.403Z,9.47
2023-04-29T22:07:45.984Z,9.70
2023-04-29T22:10:13.871Z,8.03
2023-04-29T22:12:41.815Z,5.07
2023-04-29T22:15:24.527Z,7.80
2023-04-29T22:17:56.812Z,3.60
2023-04-29T22:20:24.900Z,11.63
2023-04-29T22:22:54.289Z,8.03
2023-04-29T22:25:22.317Z,7.60
2023-04-29T22:27:50.243Z,6.07
2023-04-29T22:30:18.464Z,6.20
2023-04-29T22:32:46.336Z,5.90
2023-04-29T22:35:15.810Z,7.93
2023-04-29T22:37:43.632Z,8.13
2023-04-29T22:40:14.407Z,10.20
2023-04-29T22:42:42.876Z,5.50
2023-04-29T22:45:12.356Z,8.60
2023-04-29T22:47:40.498Z,9.47
2023-04-29T22:50:09.435Z,7.93
2023-04-29T22:52:37.379Z,9.37
2023-04-29T22:55:05.710Z,12.50
2023-04-29T22:57:35.032Z,6.43
2023-04-29T23:00:03.485Z,5.37
2023-04-29T23:02:31.389Z,11.53
2023-04-29T23:04:59.868Z,7.97
2023-04-29T23:07:27.954Z,7.57
2023-04-29T23:09:55.905Z,6.93
2023-04-29T23:12:24.674Z,13.40
2023-04-29T23:14:54.090Z,5.93
2023-04-29T23:17:21.976Z,8.30
2023-04-29T23:19:49.825Z,8.20
2023-04-29T23:22:17.701Z,7.53
2023-04-29T23:24:45.803Z,9.33
2023-04-29T23:27:13.598Z,8.13
2023-04-29T23:29:41.668Z,8.50
2023-04-29T23:32:10.900Z,8.97
2023-04-29T23:34:39.543Z,8.17
2023-04-29T23:37:07.324Z,7.67
2023-04-29T23:39:35.268Z,8.90
2023-04-29T23:42:03.773Z,8.30
2023-04-29T23:44:31.645Z,8.43
2023-04-29T23:46:59.480Z,8.77
2023-04-29T23:49:28.659Z,8.27
2023-04-29T23:51:56.775Z,8.90
2023-04-29T23:54:24.726Z,9.17
2023-04-29T23:56:52.584Z,8.53
2023-04-29T23:59:20.517Z,10.10
